Pagrindinis puslapis
METAR-TAF:

METAR-TAF

Oro uostai :

Kastamonu, Turkija

platuma: 41-19-01N, ilguma: 33-47-46E, Aukštis: 1073 m

METAR: trūkstamas

Laikas: 05:20 (02:20 UTC)

Prognozė

Ataskaita buvo paskelbta 12 valandos ir 40 minutes, ne 13:40 UTC
Prognozė galioja nuo 25 metu 15 UTC su 25 metu 24 UTC
Vėjas 9 kt iš Šiaurės Vakarų
Matomumas 10 km arba daugiau
Su prošvaistėmis ne aukštis 2800 ft
Su prošvaistėmis ne aukštis 9000 ft
Laikinai
nuo 25 metu 16 UTC su 25 metu 19 UTC
lietus

TAF: LTAL 251340Z 2515/2524 32009KT 9999 BKN028 BKN090 TEMPO 2516/2519 -SHRA

Orai ataskaitas ir orų prognozės (METAR, TAF).

turimą stotys yra geltonos ir raudonos taškus žemėlapyje.

Perkelti pele per norėdami pamatyti stoties vardą.

Tada spustelėkite, norėdami matyti oro stebėjimo ir prognozės.

Norėdami pakeisti žemėlapį: spustelėkite ant žalios mygtukų su juodo kryžiaus žemyn,; žalią mygtuką su brūkšneliu, jei norite nutolinti; arba žalių rodyklių gretimoms žemėlapius.


METAR-TAF: